Terminal Aerodrome Forecast
Issued by NWS Charleston, WV

Current Version | Previous Version | Text Only | Print | Product List | Glossary Off
Versions: 1 2 3 4 5 6 7 8 9 10 11 12 13 14 15 16 17 18 19 20 21 22

000
FTUS41 KRLX 270932 AAA
TAFPKB
TAF AMD
KPKB 270932Z 2710/2806 VRB03KT 3SM BR SCT250
      TEMPO 2710/2712 1/2SM FG VV002
     FM271200 VRB03KT P6SM BKN050
     FM271800 VRB03KT P6SM SHRA VCTS OVC040CB
     FM272000 VRB03KT P6SM SHRA VCTS OVC025CB
     FM280300 VRB03KT P6SM OVC025=

USA.gov is the U.S. government's official web portal to all federal, state and local government web resources and services.